PWSweather.com
Personal Weather Stations
Station Observations
KCTCOLEB1
Sandy Brook, Colebrook, CT 06021

Sandy BrookColebrook, CT 06021

Lat: 42.0018, Lon: -73.0825

Elevation: 935

Station Type: Davis Vantage Pro2 + Solar + UV

Latest ConditionsUpdated 3:20:01 PM EST Saturday, Dec 7, 2019
Currently Today's Max Today's Min Today's Average
Temperature 28.6°F-1.9°C 32.1°F0.1°C 18.6°F-7.4°C 25.5°F-3.6°C
Dew Point 18.3°F-7.6°C 24.3°F-4.3°C 16.2°F-8.8°C 18.9°F-7.3°C
Winds 3.5 mph N5.6 kmh N 4.6 mph -7.4 kmh - - 1.2 mph 1.9 kmh
Wind Gusts 4.6 mph7.4 kmh 10.4 mph16.7 kmh - -
Humidity 65% 92% 57% 77%
Pressure 30.34 in1027.4 mb 30.34 in1027.4 mb 30.11 in1019.6 mb -
Hour Temp Dew Point Humidity Winds Wind Gusts Pressure Precip Precip Rate Daily Precip Total
03:20 PM 28.6°F-1.9°C 18.3°F-7.6°C 65% 3.5 mph N5.6 kmh N 4.6 mph7.4 kmh 30.34 in1027.4 mb - 0.00 in0.0 mm 0.00 in0.0 mm
03:10 PM 28.9°F-1.7°C 19.0°F-7.2°C 66% 1.2 mph NNW1.9 kmh NNW 3.5 mph5.6 kmh 30.34 in1027.4 mb - 0.00 in0.0 mm 0.00 in0.0 mm
03:00 PM 29.0°F-1.7°C 18.7°F-7.4°C 65% 1.2 mph N1.9 kmh N 3.5 mph5.6 kmh 30.33 in1027.1 mb - 0.00 in0.0 mm 0.00 in0.0 mm
02:50 PM 29.2°F-1.6°C 18.2°F-7.7°C 63% 1.2 mph NE1.9 kmh NE 2.3 mph3.7 kmh 30.33 in1027.1 mb - 0.00 in0.0 mm 0.00 in0.0 mm
02:40 PM 29.4°F-1.4°C 17.6°F-8.0°C 61% 2.3 mph NNE3.7 kmh NNE 3.5 mph5.6 kmh 30.33 in1027.1 mb - 0.00 in0.0 mm 0.00 in0.0 mm
02:30 PM 29.5°F-1.4°C 17.3°F-8.2°C 60% 2.3 mph NE3.7 kmh NE 3.5 mph5.6 kmh 30.33 in1027.1 mb - 0.00 in0.0 mm 0.00 in0.0 mm
02:20 PM 29.6°F-1.3°C 17.4°F-8.1°C 60% 2.3 mph N3.7 kmh N 6.9 mph11.1 kmh 30.32 in1026.8 mb - 0.00 in0.0 mm 0.00 in0.0 mm
02:10 PM 29.7°F-1.3°C 17.5°F-8.1°C 60% 3.5 mph N5.6 kmh N 5.8 mph9.3 kmh 30.32 in1026.8 mb - 0.00 in0.0 mm 0.00 in0.0 mm
02:00 PM 30.0°F-1.1°C 18.2°F-7.7°C 61% 2.3 mph NE3.7 kmh NE 3.5 mph5.6 kmh 30.33 in1027.1 mb - 0.00 in0.0 mm 0.00 in0.0 mm
01:50 PM 30.4°F-0.9°C 17.8°F-7.9°C 59% 3.5 mph NNW5.6 kmh NNW 5.8 mph9.3 kmh 30.32 in1026.8 mb - 0.00 in0.0 mm 0.00 in0.0 mm
01:40 PM 30.9°F-0.6°C 17.4°F-8.1°C 57% 2.3 mph NNE3.7 kmh NNE 3.5 mph5.6 kmh 30.32 in1026.8 mb - 0.00 in0.0 mm 0.00 in0.0 mm
01:30 PM 31.4°F-0.3°C 18.7°F-7.4°C 59% 1.2 mph NNW1.9 kmh NNW 2.3 mph3.7 kmh 30.32 in1026.8 mb - 0.00 in0.0 mm 0.00 in0.0 mm
01:20 PM 31.7°F-0.2°C 18.6°F-7.4°C 58% 1.2 mph SE1.9 kmh SE 2.3 mph3.7 kmh 30.32 in1026.8 mb - 0.00 in0.0 mm 0.00 in0.0 mm
01:10 PM 32.1°F0.1°C 18.6°F-7.4°C 57% 2.3 mph N3.7 kmh N 3.5 mph5.6 kmh 30.32 in1026.8 mb - 0.00 in0.0 mm 0.00 in0.0 mm
01:00 PM 32.1°F0.1°C 19.0°F-7.2°C 58% 2.3 mph N3.7 kmh N 3.5 mph5.6 kmh 30.32 in1026.8 mb - 0.00 in0.0 mm 0.00 in0.0 mm
12:50 PM 31.8°F-0.1°C 19.1°F-7.2°C 59% 2.3 mph N3.7 kmh N 3.5 mph5.6 kmh 30.32 in1026.8 mb - 0.00 in0.0 mm 0.00 in0.0 mm
12:40 PM 31.4°F-0.3°C 19.1°F-7.2°C 60% 2.3 mph NNW3.7 kmh NNW 3.5 mph5.6 kmh 30.32 in1026.8 mb - 0.00 in0.0 mm 0.00 in0.0 mm
12:30 PM 30.5°F-0.8°C 17.9°F-7.8°C 59% 1.2 mph N1.9 kmh N 3.5 mph5.6 kmh 30.32 in1026.8 mb - 0.00 in0.0 mm 0.00 in0.0 mm
12:20 PM 30.6°F-0.8°C 17.5°F-8.1°C 58% 3.5 mph N5.6 kmh N 3.5 mph5.6 kmh 30.32 in1026.8 mb - 0.00 in0.0 mm 0.00 in0.0 mm
12:10 PM 30.5°F-0.8°C 17.9°F-7.8°C 59% 3.5 mph NE5.6 kmh NE 4.6 mph7.4 kmh 30.32 in1026.8 mb - 0.00 in0.0 mm 0.00 in0.0 mm
12:00 PM 30.5°F-0.8°C 17.5°F-8.1°C 58% 4.6 mph N7.4 kmh N 8.1 mph13.0 kmh 30.32 in1026.8 mb - 0.00 in0.0 mm 0.00 in0.0 mm
11:50 AM 30.3°F-0.9°C 17.7°F-7.9°C 59% 2.3 mph N3.7 kmh N 3.5 mph5.6 kmh 30.32 in1026.8 mb - 0.00 in0.0 mm 0.00 in0.0 mm
11:40 AM 30.2°F-1.0°C 17.6°F-8.0°C 59% 1.2 mph W1.9 kmh W 3.5 mph5.6 kmh 30.32 in1026.8 mb - 0.00 in0.0 mm 0.00 in0.0 mm
11:30 AM 30.2°F-1.0°C 18.0°F-7.8°C 60% 2.3 mph N3.7 kmh N 10.4 mph16.7 kmh 30.32 in1026.8 mb - 0.00 in0.0 mm 0.00 in0.0 mm
11:20 AM 30.1°F-1.1°C 17.1°F-8.3°C 58% 3.5 mph N5.6 kmh N 3.5 mph5.6 kmh 30.32 in1026.8 mb - 0.00 in0.0 mm 0.00 in0.0 mm
11:10 AM 29.9°F-1.2°C 18.9°F-7.3°C 63% 2.3 mph NE3.7 kmh NE 5.8 mph9.3 kmh 30.32 in1026.8 mb - 0.00 in0.0 mm 0.00 in0.0 mm
11:00 AM 29.3°F-1.5°C 18.3°F-7.6°C 63% 2.3 mph NE3.7 kmh NE 3.5 mph5.6 kmh 30.32 in1026.8 mb - 0.00 in0.0 mm 0.00 in0.0 mm
10:50 AM 28.9°F-1.7°C 19.3°F-7.1°C 67% 3.5 mph N5.6 kmh N 3.5 mph5.6 kmh 30.32 in1026.8 mb - 0.00 in0.0 mm 0.00 in0.0 mm
10:40 AM 28.9°F-1.7°C 20.3°F-6.5°C 70% 2.3 mph SW3.7 kmh SW 3.5 mph5.6 kmh 30.32 in1026.8 mb - 0.00 in0.0 mm 0.00 in0.0 mm
10:30 AM 28.9°F-1.7°C 20.7°F-6.3°C 71% 2.3 mph N3.7 kmh N 3.5 mph5.6 kmh 30.32 in1026.8 mb - 0.00 in0.0 mm 0.00 in0.0 mm
10:20 AM 28.8°F-1.8°C 20.9°F-6.2°C 72% 3.5 mph N5.6 kmh N 4.6 mph7.4 kmh 30.32 in1026.8 mb - 0.00 in0.0 mm 0.00 in0.0 mm
10:10 AM 28.7°F-1.8°C 21.8°F-5.7°C 75% 2.3 mph NNE3.7 kmh NNE 3.5 mph5.6 kmh 30.32 in1026.8 mb - 0.00 in0.0 mm 0.00 in0.0 mm
10:00 AM 28.2°F-2.1°C 22.2°F-5.4°C 78% 1.2 mph SE1.9 kmh SE 3.5 mph5.6 kmh 30.32 in1026.8 mb - 0.00 in0.0 mm 0.00 in0.0 mm
09:50 AM 27.3°F-2.6°C 22.0°F-5.6°C 80% 2.3 mph N3.7 kmh N 6.9 mph11.1 kmh 30.32 in1026.8 mb - 0.00 in0.0 mm 0.00 in0.0 mm
09:40 AM 26.1°F-3.3°C 21.9°F-5.6°C 84% 1.2 mph N1.9 kmh N 2.3 mph3.7 kmh 30.32 in1026.8 mb - 0.00 in0.0 mm 0.00 in0.0 mm
09:30 AM 24.6°F-4.1°C 21.3°F-5.9°C 87% 1.2 mph NNE1.9 kmh NNE 2.3 mph3.7 kmh 30.32 in1026.8 mb - 0.00 in0.0 mm 0.00 in0.0 mm
09:20 AM 23.7°F-4.6°C 20.6°F-6.3°C 88% 1.2 mph WSW1.9 kmh WSW 3.5 mph5.6 kmh 30.31 in1026.4 mb - 0.00 in0.0 mm 0.00 in0.0 mm
09:10 AM 22.6°F-5.2°C 20.3°F-6.5°C 91% 1.2 mph NNE1.9 kmh NNE 3.5 mph5.6 kmh 30.31 in1026.4 mb - 0.00 in0.0 mm 0.00 in0.0 mm
09:00 AM 21.9°F-5.6°C 19.7°F-6.8°C 91% Calm Calm 1.2 mph1.9 kmh 30.31 in1026.4 mb - 0.00 in0.0 mm 0.00 in0.0 mm
08:50 AM 21.5°F-5.8°C 19.5°F-6.9°C 92% 1.2 mph NNW1.9 kmh NNW 2.3 mph3.7 kmh 30.31 in1026.4 mb - 0.00 in0.0 mm 0.00 in0.0 mm
08:40 AM 21.0°F-6.1°C 19.0°F-7.2°C 92% Calm Calm -- 30.30 in1026.1 mb - 0.00 in0.0 mm 0.00 in0.0 mm
08:30 AM 20.6°F-6.3°C 18.6°F-7.4°C 92% Calm Calm -- 30.30 in1026.1 mb - 0.00 in0.0 mm 0.00 in0.0 mm
08:20 AM 20.2°F-6.6°C 18.3°F-7.6°C 92% Calm Calm -- 30.30 in1026.1 mb - 0.00 in0.0 mm 0.00 in0.0 mm
08:10 AM 19.8°F-6.8°C 17.8°F-7.9°C 92% Calm Calm -- 30.30 in1026.1 mb - 0.00 in0.0 mm 0.00 in0.0 mm
08:00 AM 19.4°F-7.0°C 17.5°F-8.1°C 92% Calm Calm -- 30.30 in1026.1 mb - 0.00 in0.0 mm 0.00 in0.0 mm
07:50 AM 19.1°F-7.2°C 17.2°F-8.2°C 92% Calm Calm -- 30.29 in1025.7 mb - 0.00 in0.0 mm 0.00 in0.0 mm
07:40 AM 18.8°F-7.3°C 16.6°F-8.6°C 91% Calm Calm 1.2 mph1.9 kmh 30.29 in1025.7 mb - 0.00 in0.0 mm 0.00 in0.0 mm
07:30 AM 18.6°F-7.4°C 16.4°F-8.7°C 91% 1.2 mph NNW1.9 kmh NNW 2.3 mph3.7 kmh 30.29 in1025.7 mb - 0.00 in0.0 mm 0.00 in0.0 mm
07:20 AM 18.6°F-7.4°C 16.2°F-8.8°C 90% 1.2 mph NNW1.9 kmh NNW 1.2 mph1.9 kmh 30.30 in1026.1 mb - 0.00 in0.0 mm 0.00 in0.0 mm
07:10 AM 18.7°F-7.4°C 16.3°F-8.7°C 90% Calm Calm -- 30.29 in1025.7 mb - 0.00 in0.0 mm 0.00 in0.0 mm
07:00 AM 18.9°F-7.3°C 16.5°F-8.6°C 90% Calm Calm -- 30.29 in1025.7 mb - 0.00 in0.0 mm 0.00 in0.0 mm
06:50 AM 19.1°F-7.2°C 16.7°F-8.5°C 90% Calm Calm -- 30.28 in1025.4 mb - 0.00 in0.0 mm 0.00 in0.0 mm
06:40 AM 19.3°F-7.1°C 16.8°F-8.4°C 90% Calm Calm -- 30.27 in1025.1 mb - 0.00 in0.0 mm 0.00 in0.0 mm
06:30 AM 19.4°F-7.0°C 16.9°F-8.4°C 90% Calm Calm -- 30.27 in1025.1 mb - 0.00 in0.0 mm 0.00 in0.0 mm
06:20 AM 19.4°F-7.0°C 16.9°F-8.4°C 90% Calm Calm -- 30.27 in1025.1 mb - 0.00 in0.0 mm 0.00 in0.0 mm
06:10 AM 19.4°F-7.0°C 16.7°F-8.5°C 89% Calm Calm -- 30.27 in1025.1 mb - 0.00 in0.0 mm 0.00 in0.0 mm
06:00 AM 19.4°F-7.0°C 16.7°F-8.5°C 89% Calm Calm -- 30.27 in1025.1 mb - 0.00 in0.0 mm 0.00 in0.0 mm
05:50 AM 19.5°F-6.9°C 16.8°F-8.4°C 89% Calm Calm -- 30.26 in1024.7 mb - 0.00 in0.0 mm 0.00 in0.0 mm
05:40 AM 19.6°F-6.9°C 16.6°F-8.6°C 88% Calm Calm 1.2 mph1.9 kmh 30.26 in1024.7 mb - 0.00 in0.0 mm 0.00 in0.0 mm
05:30 AM 19.7°F-6.8°C 16.7°F-8.5°C 88% Calm Calm 1.2 mph1.9 kmh 30.25 in1024.4 mb - 0.00 in0.0 mm 0.00 in0.0 mm
05:20 AM 19.9°F-6.7°C 16.9°F-8.4°C 88% Calm Calm -- 30.24 in1024.0 mb - 0.00 in0.0 mm 0.00 in0.0 mm
05:10 AM 20.0°F-6.7°C 17.0°F-8.3°C 88% Calm Calm -- 30.24 in1024.0 mb - 0.00 in0.0 mm 0.00 in0.0 mm
05:00 AM 20.2°F-6.6°C 17.0°F-8.3°C 87% Calm Calm 1.2 mph1.9 kmh 30.24 in1024.0 mb - 0.00 in0.0 mm 0.00 in0.0 mm
04:50 AM 20.4°F-6.4°C 16.9°F-8.4°C 86% Calm Calm 1.2 mph1.9 kmh 30.23 in1023.7 mb - 0.00 in0.0 mm 0.00 in0.0 mm
04:40 AM 20.8°F-6.2°C 17.0°F-8.3°C 85% Calm Calm 1.2 mph1.9 kmh 30.23 in1023.7 mb - 0.00 in0.0 mm 0.00 in0.0 mm
04:30 AM 21.2°F-6.0°C 17.2°F-8.2°C 84% Calm Calm -- 30.23 in1023.7 mb - 0.00 in0.0 mm 0.00 in0.0 mm
04:20 AM 21.8°F-5.7°C 17.7°F-7.9°C 84% Calm Calm 2.3 mph3.7 kmh 30.22 in1023.4 mb - 0.00 in0.0 mm 0.00 in0.0 mm
04:10 AM 22.3°F-5.4°C 17.9°F-7.8°C 83% Calm Calm -- 30.21 in1023.0 mb - 0.00 in0.0 mm 0.00 in0.0 mm
04:00 AM 22.8°F-5.1°C 18.1°F-7.7°C 82% Calm Calm -- 30.21 in1023.0 mb - 0.00 in0.0 mm 0.00 in0.0 mm
03:50 AM 23.1°F-4.9°C 18.5°F-7.5°C 82% Calm Calm -- 30.20 in1022.7 mb - 0.00 in0.0 mm 0.00 in0.0 mm
03:40 AM 23.6°F-4.7°C 18.6°F-7.4°C 81% Calm Calm 1.2 mph1.9 kmh 30.21 in1023.0 mb - 0.00 in0.0 mm 0.00 in0.0 mm
03:30 AM 23.9°F-4.5°C 18.9°F-7.3°C 81% Calm Calm 1.2 mph1.9 kmh 30.21 in1023.0 mb - 0.00 in0.0 mm 0.00 in0.0 mm
03:20 AM 24.2°F-4.3°C 19.2°F-7.1°C 81% Calm Calm -- 30.21 in1023.0 mb - 0.00 in0.0 mm 0.00 in0.0 mm
03:10 AM 24.6°F-4.1°C 19.3°F-7.1°C 80% Calm Calm 1.2 mph1.9 kmh 30.20 in1022.7 mb - 0.00 in0.0 mm 0.00 in0.0 mm
03:00 AM 25.0°F-3.9°C 19.7°F-6.8°C 80% Calm Calm 1.2 mph1.9 kmh 30.20 in1022.7 mb - 0.00 in0.0 mm 0.00 in0.0 mm
02:50 AM 25.4°F-3.7°C 19.8°F-6.8°C 79% 1.2 mph SW1.9 kmh SW 1.2 mph1.9 kmh 30.19 in1022.4 mb - 0.00 in0.0 mm 0.00 in0.0 mm
02:40 AM 25.8°F-3.4°C 20.2°F-6.6°C 79% Calm Calm -- 30.19 in1022.4 mb - 0.00 in0.0 mm 0.00 in0.0 mm
02:30 AM 26.1°F-3.3°C 20.2°F-6.6°C 78% Calm Calm 1.2 mph1.9 kmh 30.18 in1022.0 mb - 0.00 in0.0 mm 0.00 in0.0 mm
02:20 AM 26.5°F-3.1°C 20.6°F-6.3°C 78% 2.3 mph NNE3.7 kmh NNE 3.5 mph5.6 kmh 30.18 in1022.0 mb - 0.00 in0.0 mm 0.00 in0.0 mm
02:10 AM 26.8°F-2.9°C 20.9°F-6.2°C 78% 1.2 mph NNE1.9 kmh NNE 2.3 mph3.7 kmh 30.17 in1021.7 mb - 0.00 in0.0 mm 0.00 in0.0 mm
02:00 AM 27.1°F-2.7°C 20.8°F-6.2°C 77% 1.2 mph N1.9 kmh N 2.3 mph3.7 kmh 30.17 in1021.7 mb - 0.00 in0.0 mm 0.00 in0.0 mm
01:50 AM 27.3°F-2.6°C 21.3°F-5.9°C 78% 1.2 mph NNW1.9 kmh NNW 3.5 mph5.6 kmh 30.16 in1021.3 mb - 0.00 in0.0 mm 0.00 in0.0 mm
01:40 AM 27.4°F-2.6°C 21.1°F-6.1°C 77% 2.3 mph NE3.7 kmh NE 2.3 mph3.7 kmh 30.16 in1021.3 mb - 0.00 in0.0 mm 0.00 in0.0 mm
01:30 AM 27.5°F-2.5°C 21.8°F-5.7°C 79% 2.3 mph NNE3.7 kmh NNE 3.5 mph5.6 kmh 30.16 in1021.3 mb - 0.00 in0.0 mm 0.00 in0.0 mm
01:20 AM 27.6°F-2.4°C 21.9°F-5.6°C 79% 2.3 mph N3.7 kmh N 3.5 mph5.6 kmh 30.15 in1021.0 mb - 0.00 in0.0 mm 0.00 in0.0 mm
01:10 AM 27.7°F-2.4°C 22.0°F-5.6°C 79% Calm Calm -- 30.14 in1020.7 mb - 0.00 in0.0 mm 0.00 in0.0 mm
01:00 AM 27.8°F-2.3°C 21.8°F-5.7°C 78% 1.2 mph N1.9 kmh N 2.3 mph3.7 kmh 30.14 in1020.7 mb - 0.00 in0.0 mm 0.00 in0.0 mm
12:50 AM 28.0°F-2.2°C 21.4°F-5.9°C 76% Calm Calm -- 30.13 in1020.3 mb - 0.00 in0.0 mm 0.00 in0.0 mm
12:40 AM 28.3°F-2.1°C 21.7°F-5.7°C 76% 1.2 mph NW1.9 kmh NW 2.3 mph3.7 kmh 30.13 in1020.3 mb - 0.00 in0.0 mm 0.00 in0.0 mm
12:30 AM 28.7°F-1.8°C 21.7°F-5.7°C 75% 2.3 mph NNE3.7 kmh NNE 3.5 mph5.6 kmh 30.12 in1020.0 mb - 0.00 in0.0 mm 0.00 in0.0 mm
12:20 AM 29.0°F-1.7°C 23.3°F-4.8°C 79% 1.2 mph NNE1.9 kmh NNE 3.5 mph5.6 kmh 30.12 in1020.0 mb - 0.00 in0.0 mm 0.00 in0.0 mm
12:10 AM 29.2°F-1.6°C 24.1°F-4.4°C 81% Calm Calm 3.5 mph5.6 kmh 30.12 in1020.0 mb - 0.00 in0.0 mm 0.00 in0.0 mm
12:00 AM 29.5°F-1.4°C 24.3°F-4.3°C 81% 1.2 mph NNE1.9 kmh NNE 2.3 mph3.7 kmh 30.11 in1019.6 mb - 0.00 in0.0 mm 0.00 in0.0 mm